Time;durP1;ratioP1;P1;durP2;ratioP2;P2;SDS_P1;SDS_P2;PMS_P1;PMS_P2;Temp;Humidity;BMP_temperature;BMP_pressure;BME280_temperature;BME280_humidity;BME280_pressure;Samples;Min_cycle;Max_cycle;Signal;HPM_P1;HPM_P2
2021/08/23 00:02:07;;;;;;;21.37;11.57;;;17.20;99.90;;;;;;5058402;28;20239;-69
2021/08/23 00:04:36;;;;;;;23.07;11.43;;;17.20;99.90;;;;;;5064008;28;20260;-69
2021/08/23 00:07:04;;;;;;;24.77;12.00;;;17.20;99.90;;;;;;5060669;28;20188;-69
2021/08/23 00:09:34;;;;;;;25.07;12.00;;;17.20;99.90;;;;;;5061114;28;20187;-68
2021/08/23 00:12:03;;;;;;;24.47;11.87;;;17.20;99.90;;;;;;5059994;28;20433;-68
2021/08/23 00:14:31;;;;;;;24.17;11.77;;;17.20;99.90;;;;;;5062768;28;20276;-68
2021/08/23 00:17:00;;;;;;;26.07;12.07;;;17.20;99.90;;;;;;5059500;28;20212;-69
2021/08/23 00:19:28;;;;;;;24.37;12.70;;;17.20;99.90;;;;;;5063086;28;20308;-68
2021/08/23 00:22:07;;;;;;;20.40;13.33;;;17.20;99.90;;;;;;5060588;28;20179;-69
2021/08/23 00:24:37;;;;;;;25.30;13.23;;;17.20;99.90;;;;;;5060239;28;20193;-68
2021/08/23 00:27:06;;;;;;;22.90;12.70;;;17.20;99.90;;;;;;5060902;28;20182;-68
2021/08/23 00:29:34;;;;;;;31.13;12.67;;;17.20;99.90;;;;;;5064006;28;20193;-68
2021/08/23 00:32:02;;;;;;;19.33;11.93;;;17.20;99.90;;;;;;5063766;28;20281;-69
2021/08/23 00:34:31;;;;;;;29.10;13.33;;;17.20;99.90;;;;;;5064477;28;20194;-67
2021/08/23 00:36:59;;;;;;;25.53;14.00;;;17.20;99.90;;;;;;5060658;28;20201;-68
2021/08/23 00:39:27;;;;;;;30.50;13.03;;;17.20;99.90;;;;;;5059796;28;20356;-69
2021/08/23 00:41:58;;;;;;;27.23;13.10;;;17.20;99.90;;;;;;5040807;28;20175;-69
2021/08/23 00:44:26;;;;;;;26.37;13.27;;;17.20;99.90;;;;;;5078446;28;20369;-69
2021/08/23 00:46:55;;;;;;;23.30;13.00;;;17.20;99.90;;;;;;5061959;28;20190;-69
2021/08/23 00:49:23;;;;;;;29.23;12.97;;;17.20;99.90;;;;;;5062362;28;20371;-69
2021/08/23 00:51:52;;;;;;;28.57;12.87;;;17.20;99.90;;;;;;5062383;28;20192;-68
2021/08/23 00:54:21;;;;;;;26.77;13.17;;;17.20;99.90;;;;;;5075993;28;20391;-68
2021/08/23 00:56:50;;;;;;;27.97;12.67;;;17.10;99.90;;;;;;5061826;28;20204;-69
2021/08/23 00:59:21;;;;;;;27.37;13.23;;;17.10;99.90;;;;;;5060511;28;20227;-69
2021/08/23 01:01:57;;;;;;;28.13;13.33;;;17.10;99.90;;;;;;5059266;28;20201;-69
2021/08/23 01:04:32;;;;;;;29.13;13.53;;;17.10;99.90;;;;;;5061854;28;20184;-68
2021/08/23 01:07:02;;;;;;;23.27;13.40;;;17.10;99.90;;;;;;5060280;28;20427;-68
2021/08/23 01:09:33;;;;;;;24.20;13.83;;;17.10;99.90;;;;;;5059932;28;20486;-69
2021/08/23 01:12:05;;;;;;;24.57;13.53;;;17.10;99.90;;;;;;5061616;28;20190;-69
2021/08/23 01:14:34;;;;;;;24.70;13.13;;;17.10;99.90;;;;;;5060229;28;20224;-68
2021/08/23 01:17:04;;;;;;;28.57;12.80;;;17.10;99.90;;;;;;5058476;28;20206;-69
2021/08/23 01:19:32;;;;;;;25.97;12.40;;;17.20;99.90;;;;;;5060576;28;20187;-69
2021/08/23 01:22:03;;;;;;;23.00;13.13;;;17.10;99.90;;;;;;5060520;28;20200;-68
2021/08/23 01:24:34;;;;;;;22.13;12.83;;;17.20;99.90;;;;;;5059435;28;20327;-68
2021/08/23 01:27:07;;;;;;;32.67;13.47;;;17.20;99.90;;;;;;5060297;28;20191;-68
2021/08/23 01:29:49;;;;;;;28.77;12.93;;;17.20;99.90;;;;;;5058637;28;20195;-68
2021/08/23 01:32:23;;;;;;;34.30;13.67;;;17.10;99.90;;;;;;5059621;28;20471;-69
2021/08/23 01:34:53;;;;;;;25.87;12.80;;;17.20;99.90;;;;;;5060772;28;20181;-69
2021/08/23 01:37:25;;;;;;;29.43;13.13;;;17.20;99.90;;;;;;5059893;28;20540;-69
2021/08/23 01:39:53;;;;;;;24.80;12.17;;;17.20;99.90;;;;;;5059066;28;20574;-68
2021/08/23 01:42:22;;;;;;;25.63;12.50;;;17.20;99.90;;;;;;5059209;28;20195;-68
2021/08/23 01:44:53;;;;;;;22.40;11.93;;;17.20;99.90;;;;;;5059392;28;20180;-68
2021/08/23 01:47:22;;;;;;;24.53;12.53;;;17.20;99.90;;;;;;5061646;28;20216;-69
2021/08/23 01:49:51;;;;;;;27.60;12.40;;;17.20;99.90;;;;;;5060674;28;20186;-69
2021/08/23 01:52:19;;;;;;;22.30;11.83;;;17.20;99.90;;;;;;5057908;28;20186;-69
2021/08/23 01:54:47;;;;;;;26.40;11.77;;;17.20;99.90;;;;;;5060946;28;20174;-69
2021/08/23 01:57:19;;;;;;;19.77;11.10;;;17.20;99.90;;;;;;5055810;28;20389;-69
2021/08/23 01:59:47;;;;;;;22.83;11.07;;;17.20;99.90;;;;;;5059678;28;20230;-68
2021/08/23 02:02:16;;;;;;;19.87;10.67;;;17.20;99.90;;;;;;5059925;28;20190;-69
2021/08/23 02:04:46;;;;;;;24.40;10.50;;;17.20;99.90;;;;;;5057676;28;20185;-68
2021/08/23 02:07:14;;;;;;;22.93;10.10;;;17.20;99.90;;;;;;5056257;28;20179;-69
2021/08/23 02:09:42;;;;;;;19.27;10.20;;;17.20;99.90;;;;;;5058220;28;20240;-68
2021/08/23 02:12:12;;;;;;;16.63;10.23;;;17.30;99.90;;;;;;5057496;28;20429;-69
2021/08/23 02:14:43;;;;;;;17.03;9.63;;;17.30;99.90;;;;;;5073512;28;20190;-69
2021/08/23 02:17:11;;;;;;;22.33;9.57;;;17.30;99.90;;;;;;5058350;28;20198;-68
2021/08/23 02:19:40;;;;;;;16.43;8.73;;;17.30;99.90;;;;;;5057997;28;20309;-68
2021/08/23 02:22:09;;;;;;;16.83;9.47;;;17.30;99.90;;;;;;5061244;28;20240;-68
2021/08/23 02:24:38;;;;;;;21.20;9.10;;;17.30;99.90;;;;;;5065027;28;20309;-67
2021/08/23 02:27:06;;;;;;;21.10;8.40;;;17.30;99.90;;;;;;5065761;28;20507;-68
2021/08/23 02:29:35;;;;;;;16.07;8.53;;;17.30;99.90;;;;;;5081106;28;20202;-68
2021/08/23 02:32:06;;;;;;;18.87;8.53;;;17.30;99.90;;;;;;5066922;28;20226;-69
2021/08/23 02:34:34;;;;;;;14.13;8.67;;;17.30;99.90;;;;;;5065005;28;20241;-68
2021/08/23 02:37:03;;;;;;;17.37;8.37;;;17.30;99.90;;;;;;5066658;28;20202;-67
2021/08/23 02:39:32;;;;;;;16.40;8.70;;;17.30;99.90;;;;;;5062076;28;20258;-68
2021/08/23 02:42:01;;;;;;;16.33;8.63;;;17.30;99.90;;;;;;5064919;28;20193;-69
2021/08/23 02:44:29;;;;;;;16.20;9.10;;;17.30;99.90;;;;;;5065271;28;20185;-69
2021/08/23 02:46:57;;;;;;;17.37;8.93;;;17.30;99.90;;;;;;5066866;28;20175;-69
2021/08/23 02:49:26;;;;;;;17.33;9.00;;;17.30;99.90;;;;;;5067109;28;20375;-69
2021/08/23 02:51:55;;;;;;;21.77;9.50;;;17.30;99.90;;;;;;5066928;28;20190;-69
2021/08/23 02:54:23;;;;;;;19.17;9.10;;;17.30;99.90;;;;;;5063926;28;20202;-69
2021/08/23 02:56:55;;;;;;;16.73;8.87;;;17.30;99.90;;;;;;5065383;28;20184;-68
2021/08/23 02:59:24;;;;;;;18.07;9.17;;;17.30;99.90;;;;;;5066468;28;20195;-68
2021/08/23 03:01:52;;;;;;;17.00;9.47;;;17.20;99.90;;;;;;5065480;28;20183;-69
2021/08/23 03:04:21;;;;;;;18.13;10.37;;;17.20;99.90;;;;;;5067346;28;20210;-69
2021/08/23 03:06:49;;;;;;;17.33;9.57;;;17.20;99.90;;;;;;5063884;28;20473;-69
2021/08/23 03:09:18;;;;;;;21.80;9.60;;;17.20;99.90;;;;;;5062897;28;20182;-69
2021/08/23 03:11:49;;;;;;;23.40;10.00;;;17.20;99.90;;;;;;5065724;28;20361;-68
2021/08/23 03:14:18;;;;;;;21.30;9.97;;;17.20;99.90;;;;;;5063965;28;20230;-69
2021/08/23 03:16:47;;;;;;;20.90;9.77;;;17.20;99.90;;;;;;5061849;28;20216;-69
2021/08/23 03:19:15;;;;;;;24.03;9.33;;;17.20;99.90;;;;;;5067166;28;20192;-69
2021/08/23 03:21:44;;;;;;;17.07;9.43;;;17.20;99.90;;;;;;5065778;28;20189;-69
2021/08/23 03:24:13;;;;;;;14.77;9.43;;;17.20;99.90;;;;;;5066062;28;20183;-69
2021/08/23 03:26:42;;;;;;;21.20;10.03;;;17.20;99.90;;;;;;5064402;28;20196;-68
2021/08/23 03:29:12;;;;;;;22.17;10.17;;;17.20;99.90;;;;;;5061755;28;20416;-68
2021/08/23 03:31:43;;;;;;;18.93;9.40;;;17.20;99.90;;;;;;5044097;28;20230;-68
2021/08/23 03:34:13;;;;;;;21.10;9.83;;;17.20;99.90;;;;;;5063874;28;20191;-69
2021/08/23 03:36:45;;;;;;;18.27;8.97;;;17.20;99.90;;;;;;5071996;28;20260;-69
2021/08/23 03:39:14;;;;;;;19.70;8.93;;;17.20;99.90;;;;;;5061985;28;20405;-69
2021/08/23 03:41:48;;;;;;;17.53;8.27;;;17.20;99.90;;;;;;5057903;28;20186;-69
2021/08/23 03:44:30;;;;;;;17.60;7.80;;;17.20;99.90;;;;;;5047339;28;20370;-69
2021/08/23 03:47:31;;;;;;;13.03;7.47;;;17.20;99.90;;;;;;5059116;28;20264;-69
2021/08/23 03:49:59;;;;;;;16.13;7.60;;;17.20;99.90;;;;;;5054169;28;20226;-68
2021/08/23 03:52:28;;;;;;;15.70;7.13;;;17.20;99.90;;;;;;5062450;28;20222;-69
2021/08/23 03:54:56;;;;;;;13.23;7.40;;;17.20;99.90;;;;;;5058707;28;20176;-69
2021/08/23 03:57:24;;;;;;;11.13;6.80;;;17.20;99.90;;;;;;5060908;28;20182;-69
2021/08/23 03:59:52;;;;;;;16.20;7.17;;;17.20;99.90;;;;;;5062070;28;20185;-68
2021/08/23 04:02:21;;;;;;;11.20;6.80;;;17.20;99.90;;;;;;5061799;28;20503;-68
2021/08/23 04:04:53;;;;;;;12.53;6.73;;;17.20;99.90;;;;;;5060244;28;20193;-69
2021/08/23 04:07:21;;;;;;;15.23;7.50;;;17.20;99.90;;;;;;5062150;28;20485;-68
2021/08/23 04:09:50;;;;;;;19.47;6.87;;;17.20;99.90;;;;;;5062739;28;20189;-69
2021/08/23 04:12:18;;;;;;;16.97;7.77;;;17.20;99.90;;;;;;5061268;28;20189;-68
2021/08/23 04:14:46;;;;;;;20.90;7.97;;;17.20;99.90;;;;;;5060644;28;20178;-68
2021/08/23 04:17:15;;;;;;;17.80;8.60;;;17.20;99.90;;;;;;5062877;28;20338;-69
2021/08/23 04:19:43;;;;;;;14.13;9.53;;;17.20;99.90;;;;;;5062515;28;20481;-68
2021/08/23 04:22:13;;;;;;;16.67;9.77;;;17.20;99.90;;;;;;5061887;28;20248;-68
2021/08/23 04:24:41;;;;;;;17.40;10.23;;;17.20;99.90;;;;;;5061673;28;20191;-68
2021/08/23 04:27:10;;;;;;;21.57;13.10;;;17.30;99.90;;;;;;5062185;28;20227;-69
2021/08/23 04:29:38;;;;;;;21.87;13.93;;;17.30;99.90;;;;;;5061485;28;20198;-68
2021/08/23 04:32:08;;;;;;;20.40;13.70;;;17.30;99.90;;;;;;5043600;28;20220;-69
2021/08/23 04:34:37;;;;;;;23.13;14.83;;;17.30;99.90;;;;;;5058638;28;20424;-68
2021/08/23 04:37:05;;;;;;;22.13;13.87;;;17.30;99.90;;;;;;5059879;28;20424;-69
2021/08/23 04:39:35;;;;;;;20.77;15.07;;;17.30;99.90;;;;;;5060364;28;20251;-69
2021/08/23 04:42:04;;;;;;;27.30;16.87;;;17.30;99.90;;;;;;5061233;28;20192;-69
2021/08/23 04:44:33;;;;;;;24.90;17.10;;;17.30;99.90;;;;;;5061836;28;20179;-68
2021/08/23 04:47:01;;;;;;;29.17;20.20;;;17.30;99.90;;;;;;5059700;28;20187;-69
2021/08/23 04:49:29;;;;;;;26.00;18.03;;;17.30;99.90;;;;;;5074587;28;20189;-68
2021/08/23 04:51:58;;;;;;;24.57;19.13;;;17.30;99.90;;;;;;5060676;28;20179;-69
2021/08/23 04:54:26;;;;;;;30.80;20.30;;;17.30;99.90;;;;;;5075966;28;20192;-69
2021/08/23 04:56:55;;;;;;;29.00;21.67;;;17.30;99.90;;;;;;5059812;28;20259;-68
2021/08/23 04:59:24;;;;;;;33.07;21.87;;;17.30;99.90;;;;;;5062134;28;20498;-69
2021/08/23 05:01:52;;;;;;;30.83;20.83;;;17.30;99.90;;;;;;5058802;28;20189;-68
2021/08/23 05:04:21;;;;;;;32.53;21.97;;;17.30;99.90;;;;;;5059054;28;20478;-69
2021/08/23 05:06:49;;;;;;;29.77;22.13;;;17.30;99.90;;;;;;5060298;28;20187;-68
2021/08/23 05:09:17;;;;;;;32.40;23.73;;;17.30;99.90;;;;;;5060053;28;20319;-69
2021/08/23 05:11:46;;;;;;;32.73;22.67;;;17.30;99.90;;;;;;5056688;28;20191;-68
2021/08/23 05:14:16;;;;;;;33.50;22.50;;;17.30;99.90;;;;;;5061539;28;20378;-68
2021/08/23 05:16:44;;;;;;;32.87;22.97;;;17.30;99.90;;;;;;5060056;28;20200;-67
2021/08/23 05:19:12;;;;;;;31.03;24.27;;;17.40;99.90;;;;;;5060596;28;20196;-69
2021/08/23 05:21:40;;;;;;;30.03;22.77;;;17.40;99.90;;;;;;5061915;28;20438;-69
2021/08/23 05:24:09;;;;;;;30.13;24.23;;;17.40;99.90;;;;;;5062468;28;20172;-68
2021/08/23 05:26:38;;;;;;;29.57;23.77;;;17.40;99.90;;;;;;5058851;28;20194;-68
2021/08/23 05:29:07;;;;;;;29.67;23.13;;;17.40;99.90;;;;;;5060598;28;20177;-69
2021/08/23 05:31:37;;;;;;;25.40;21.93;;;17.30;99.90;;;;;;5058527;28;20223;-68
2021/08/23 05:34:05;;;;;;;27.27;22.97;;;17.30;99.90;;;;;;5057428;28;20260;-69
2021/08/23 05:36:33;;;;;;;28.60;23.27;;;17.40;99.90;;;;;;5060519;28;20225;-69
2021/08/23 05:39:02;;;;;;;32.77;23.67;;;17.30;99.90;;;;;;5059322;28;20263;-68
2021/08/23 05:41:32;;;;;;;29.30;23.60;;;17.40;99.90;;;;;;5059322;28;20213;-67
2021/08/23 05:44:01;;;;;;;32.70;25.27;;;17.40;99.90;;;;;;5060474;28;20420;-69
2021/08/23 05:46:29;;;;;;;30.97;24.60;;;17.40;99.90;;;;;;5060231;28;20443;-68
2021/08/23 05:48:59;;;;;;;30.43;23.03;;;17.40;99.90;;;;;;5058867;28;20178;-68
2021/08/23 05:51:27;;;;;;;27.77;22.77;;;17.30;99.90;;;;;;5060386;28;20176;-68
2021/08/23 05:53:55;;;;;;;29.47;20.73;;;17.30;99.90;;;;;;5059381;28;20207;-68
2021/08/23 05:56:24;;;;;;;25.17;19.53;;;17.30;99.90;;;;;;5056238;28;20430;-68
2021/08/23 05:58:52;;;;;;;25.17;19.63;;;17.30;99.90;;;;;;5059336;28;20479;-68
2021/08/23 06:01:20;;;;;;;24.50;18.93;;;17.30;99.90;;;;;;5056910;28;20176;-68
2021/08/23 06:03:49;;;;;;;23.93;17.87;;;17.30;99.90;;;;;;5060157;28;20184;-68
2021/08/23 06:06:18;;;;;;;21.33;17.73;;;17.30;99.90;;;;;;5057710;28;20497;-68
2021/08/23 06:08:47;;;;;;;22.73;17.40;;;17.40;99.90;;;;;;5060507;28;20192;-67
2021/08/23 06:11:15;;;;;;;20.77;16.10;;;17.40;99.90;;;;;;5057768;28;20193;-68
2021/08/23 06:13:43;;;;;;;20.53;15.77;;;17.40;99.90;;;;;;5053737;28;20362;-68
2021/08/23 06:16:12;;;;;;;24.10;15.70;;;17.30;99.90;;;;;;5058418;28;20179;-68
2021/08/23 06:18:40;;;;;;;20.57;15.27;;;17.30;99.90;;;;;;5060481;28;20332;-68
2021/08/23 06:21:10;;;;;;;22.00;15.53;;;17.30;99.90;;;;;;5058813;28;20183;-68
2021/08/23 06:23:39;;;;;;;19.27;14.40;;;17.30;99.90;;;;;;5060188;28;20238;-69
2021/08/23 06:26:07;;;;;;;21.17;14.10;;;17.30;99.90;;;;;;5061364;28;20460;-68
2021/08/23 06:28:36;;;;;;;17.20;13.60;;;17.30;99.90;;;;;;5058028;28;20211;-68
2021/08/23 06:31:04;;;;;;;18.47;13.97;;;17.30;99.90;;;;;;5058381;28;20581;-68
2021/08/23 06:33:32;;;;;;;17.57;14.33;;;17.30;99.90;;;;;;5059276;28;20251;-68
2021/08/23 06:36:01;;;;;;;23.30;14.10;;;17.30;99.90;;;;;;5060036;28;20201;-68
2021/08/23 06:38:30;;;;;;;18.87;13.27;;;17.40;99.90;;;;;;5060137;28;20245;-67
2021/08/23 06:40:59;;;;;;;23.53;13.17;;;17.40;99.90;;;;;;5058922;28;20209;-68
2021/08/23 06:43:28;;;;;;;17.97;12.67;;;17.40;99.90;;;;;;5056028;28;20208;-68
2021/08/23 06:45:56;;;;;;;15.07;11.70;;;17.40;99.90;;;;;;5058515;28;20177;-68
2021/08/23 06:48:24;;;;;;;19.10;11.83;;;17.40;99.90;;;;;;5060027;28;20190;-68
2021/08/23 06:50:53;;;;;;;16.67;11.37;;;17.40;99.90;;;;;;5059292;28;20181;-68
2021/08/23 06:53:21;;;;;;;16.17;11.47;;;17.40;99.90;;;;;;5057300;28;20227;-68
2021/08/23 06:55:50;;;;;;;15.00;11.70;;;17.50;99.90;;;;;;5060692;28;20188;-67
2021/08/23 06:58:19;;;;;;;14.90;11.63;;;17.50;99.90;;;;;;5058316;28;20184;-68
2021/08/23 07:00:48;;;;;;;16.67;11.53;;;17.40;99.90;;;;;;5059775;28;20200;-68
2021/08/23 07:03:16;;;;;;;20.20;10.90;;;17.50;99.90;;;;;;5057727;28;20458;-68
2021/08/23 07:05:45;;;;;;;15.40;12.03;;;17.40;99.90;;;;;;5059399;28;20193;-68
2021/08/23 07:08:14;;;;;;;16.27;11.47;;;17.40;99.90;;;;;;5058010;28;20264;-68
2021/08/23 07:10:42;;;;;;;18.23;12.00;;;17.50;99.90;;;;;;5063408;28;20197;-68
2021/08/23 07:13:10;;;;;;;17.00;11.87;;;17.40;99.90;;;;;;5059822;28;20183;-68
2021/08/23 07:15:40;;;;;;;17.77;11.93;;;17.40;99.90;;;;;;5062853;28;20207;-68
2021/08/23 07:18:09;;;;;;;19.13;11.97;;;17.40;99.90;;;;;;5061767;28;20359;-68
2021/08/23 07:20:37;;;;;;;22.90;12.13;;;17.40;99.90;;;;;;5063197;28;20402;-68
2021/08/23 07:23:09;;;;;;;16.83;13.07;;;17.40;99.90;;;;;;5063800;28;20474;-68
2021/08/23 07:25:37;;;;;;;18.77;12.30;;;17.40;99.90;;;;;;5064291;28;20187;-68
2021/08/23 07:28:05;;;;;;;17.33;11.93;;;17.40;99.90;;;;;;5059702;28;20188;-68
2021/08/23 07:30:34;;;;;;;16.13;11.87;;;17.40;99.90;;;;;;5064005;28;20214;-68
2021/08/23 07:33:04;;;;;;;15.43;11.10;;;17.50;99.90;;;;;;5061961;28;20209;-68
2021/08/23 07:35:32;;;;;;;16.90;10.33;;;17.40;99.90;;;;;;5063587;28;20209;-67
2021/08/23 07:38:00;;;;;;;14.57;10.70;;;17.50;99.90;;;;;;5047185;28;20179;-68
2021/08/23 07:40:29;;;;;;;13.67;10.00;;;17.50;99.90;;;;;;5064218;28;20204;-68
2021/08/23 07:42:57;;;;;;;12.87;9.33;;;17.50;99.90;;;;;;5060816;28;20185;-68
2021/08/23 07:45:26;;;;;;;15.20;9.43;;;17.50;99.90;;;;;;5061353;28;20234;-68
2021/08/23 07:47:54;;;;;;;11.43;9.17;;;17.40;99.90;;;;;;5059886;28;20230;-68
2021/08/23 07:50:24;;;;;;;13.07;9.93;;;17.40;99.90;;;;;;5061822;28;20177;-68
2021/08/23 07:52:53;;;;;;;14.03;9.57;;;17.40;99.90;;;;;;5062162;28;20197;-68
2021/08/23 07:55:21;;;;;;;11.17;9.57;;;17.50;99.90;;;;;;5062962;28;20305;-68
2021/08/23 07:57:50;;;;;;;12.90;9.67;;;17.50;99.90;;;;;;5061256;28;20181;-68
2021/08/23 08:00:22;;;;;;;10.60;9.10;;;17.40;99.90;;;;;;5062720;28;20202;-68
2021/08/23 08:02:51;;;;;;;12.83;8.97;;;17.40;99.90;;;;;;5059118;28;20272;-67
2021/08/23 08:05:20;;;;;;;14.40;9.47;;;17.50;99.90;;;;;;5061585;28;20258;-67
2021/08/23 08:07:50;;;;;;;11.87;8.47;;;17.50;99.90;;;;;;5059815;28;20195;-68
2021/08/23 08:10:19;;;;;;;10.40;9.13;;;17.50;99.90;;;;;;5058789;28;20429;-68
2021/08/23 08:12:48;;;;;;;13.93;9.33;;;17.60;99.90;;;;;;5062162;28;20176;-68
2021/08/23 08:15:16;;;;;;;10.33;8.90;;;17.60;99.90;;;;;;5067120;28;20201;-68
2021/08/23 08:17:44;;;;;;;10.33;9.17;;;17.70;99.90;;;;;;5063583;28;20429;-68
2021/08/23 08:20:13;;;;;;;12.90;9.10;;;17.80;99.90;;;;;;5059811;28;20211;-68
2021/08/23 08:22:43;;;;;;;10.53;9.43;;;18.00;99.90;;;;;;5069879;28;20210;-68
2021/08/23 08:25:13;;;;;;;10.20;8.87;;;18.20;99.90;;;;;;5065600;28;20185;-68
2021/08/23 08:27:42;;;;;;;12.93;9.23;;;18.30;99.90;;;;;;5062444;28;20332;-68
2021/08/23 08:30:14;;;;;;;13.40;8.97;;;18.30;99.90;;;;;;5063236;28;20204;-68
2021/08/23 08:32:42;;;;;;;10.53;9.43;;;18.30;99.90;;;;;;5063344;28;20240;-68
2021/08/23 08:35:11;;;;;;;13.97;9.63;;;18.40;99.90;;;;;;5059489;28;20185;-67
2021/08/23 08:37:40;;;;;;;12.23;9.27;;;18.30;99.90;;;;;;5060241;28;20428;-68
2021/08/23 08:40:11;;;;;;;12.00;8.97;;;18.30;99.90;;;;;;5053529;28;20215;-68
2021/08/23 08:42:43;;;;;;;11.20;9.00;;;18.30;99.90;;;;;;5056392;28;20185;-68
2021/08/23 08:45:11;;;;;;;10.93;9.30;;;18.40;99.90;;;;;;5061537;28;20193;-68
2021/08/23 08:47:43;;;;;;;11.67;9.03;;;18.40;99.90;;;;;;5059827;28;20215;-68
2021/08/23 08:50:15;;;;;;;11.10;8.10;;;18.40;99.90;;;;;;5061052;28;20208;-67
2021/08/23 08:52:46;;;;;;;11.67;8.30;;;18.30;99.90;;;;;;5062023;28;20247;-67
2021/08/23 08:55:14;;;;;;;9.70;8.47;;;18.30;99.90;;;;;;5058859;28;20302;-68
2021/08/23 08:57:46;;;;;;;8.47;7.67;;;18.20;99.90;;;;;;5059349;28;20177;-68
2021/08/23 09:00:16;;;;;;;14.27;8.13;;;18.20;99.90;;;;;;5056535;28;20459;-68
2021/08/23 09:02:55;;;;;;;11.63;8.03;;;18.30;99.90;;;;;;5062753;28;20196;-68
2021/08/23 09:05:23;;;;;;;11.40;7.93;;;18.30;99.90;;;;;;5063853;28;20223;-68
2021/08/23 09:07:52;;;;;;;12.53;8.50;;;18.40;99.90;;;;;;5063428;28;20185;-68
2021/08/23 09:10:23;;;;;;;8.90;7.33;;;18.50;99.90;;;;;;5063171;28;20179;-68
2021/08/23 09:13:07;;;;;;;12.07;8.30;;;18.50;99.90;;;;;;5062476;28;20206;-69
2021/08/23 09:15:37;;;;;;;13.67;8.30;;;18.60;99.90;;;;;;5062994;28;20212;-68
2021/08/23 09:33:22;;;;;;;9.07;6.70;;;19.30;99.90;;;;;;4620718;22;20226;-68
2021/08/23 09:35:54;;;;;;;10.63;6.30;;;19.30;99.90;;;;;;4589976;22;20222;-68
2021/08/23 09:38:32;;;;;;;8.43;6.07;;;19.40;99.90;;;;;;4672209;22;20243;-68
2021/08/23 09:41:08;;;;;;;8.53;6.23;;;19.50;99.90;;;;;;4675756;22;20238;-68
2021/08/23 09:43:44;;;;;;;8.37;5.63;;;19.60;99.90;;;;;;4657570;22;20435;-68
2021/08/23 10:04:45;;;;;;;9.07;5.37;;;19.40;99.90;;;;;;4609016;22;20316;-68
2021/08/23 10:16:32;;;;;;;7.00;4.90;;;19.90;99.90;;;;;;4617777;22;20436;-67
2021/08/23 10:19:10;;;;;;;4.47;4.07;;;20.10;99.90;;;;;;4647716;22;20246;-68
2021/08/23 10:21:48;;;;;;;6.10;4.83;;;20.20;99.90;;;;;;4608973;22;20353;-68
2021/08/23 10:24:24;;;;;;;6.73;4.83;;;20.30;99.90;;;;;;4609092;22;20282;-68
2021/08/23 10:26:59;;;;;;;7.17;4.80;;;20.40;99.90;;;;;;4648340;22;20266;-68
2021/08/23 10:41:27;;;;;;;5.13;4.07;;;20.80;99.90;;;;;;4601960;22;20307;-68
2021/08/23 10:44:05;;;;;;;4.23;3.83;;;20.90;99.90;;;;;;4677991;22;21279;-68
2021/08/23 10:52:48;;;;;;;6.60;3.97;;;22.50;99.90;;;;;;4646369;22;20319;-69
2021/08/23 10:58:05;;;;;;;7.53;4.00;;;23.10;99.90;;;;;;4677726;22;20255;-68
2021/08/23 11:06:35;;;;;;;6.27;3.63;;;22.30;99.90;;;;;;5089953;28;20249;-66
2021/08/23 11:09:07;;;;;;;4.37;3.97;;;22.70;99.90;;;;;;5095787;28;20548;-66
2021/08/23 11:11:37;;;;;;;5.07;4.00;;;22.70;99.90;;;;;;5073688;28;20220;-68
2021/08/23 11:14:17;;;;;;;4.30;4.00;;;22.40;99.90;;;;;;5063260;28;20277;-68
2021/08/23 11:16:52;;;;;;;5.67;3.87;;;22.20;99.90;;;;;;5074795;28;20325;-68
2021/08/23 11:19:22;;;;;;;4.10;3.80;;;22.00;99.90;;;;;;5069125;28;20283;-68
2021/08/23 11:21:56;;;;;;;4.00;3.73;;;22.00;99.90;;;;;;5070452;28;20251;-68
2021/08/23 11:24:27;;;;;;;4.30;3.47;;;22.10;99.90;;;;;;5097081;28;20274;-68
2021/08/23 11:27:00;;;;;;;6.73;4.20;;;22.20;99.90;;;;;;5091165;28;20213;-69
2021/08/23 11:29:30;;;;;;;4.90;4.07;;;22.00;99.90;;;;;;5095764;28;20195;-68
2021/08/23 11:31:59;;;;;;;4.00;3.67;;;21.90;99.90;;;;;;5094567;28;20191;-66
2021/08/23 11:34:28;;;;;;;4.60;3.97;;;21.90;99.90;;;;;;5097750;28;20220;-65
2021/08/23 11:37:01;;;;;;;4.43;3.90;;;21.70;99.90;;;;;;5091154;28;20874;-66
2021/08/23 11:39:30;;;;;;;4.33;3.90;;;21.50;99.90;;;;;;5091430;28;20274;-66
2021/08/23 11:41:59;;;;;;;4.20;3.80;;;21.50;99.90;;;;;;5098570;28;20207;-66
2021/08/23 11:44:29;;;;;;;7.67;4.00;;;21.40;99.90;;;;;;5072654;28;20216;-66
2021/08/23 11:46:59;;;;;;;4.17;3.70;;;21.40;99.90;;;;;;5090942;28;20275;-66
2021/08/23 11:49:33;;;;;;;4.80;3.90;;;21.40;99.90;;;;;;5096673;28;20196;-66
2021/08/23 11:52:12;;;;;;;4.03;3.70;;;21.70;99.90;;;;;;5090548;28;20219;-65
2021/08/23 11:54:41;;;;;;;3.60;3.03;;;22.00;99.90;;;;;;5092289;28;20585;-67
2021/08/23 11:57:10;;;;;;;6.57;3.67;;;22.20;99.90;;;;;;5090078;28;20287;-66
2021/08/23 11:59:39;;;;;;;4.77;3.67;;;22.30;99.90;;;;;;5096574;28;20576;-66
2021/08/23 12:02:12;;;;;;;4.73;4.23;;;22.00;99.90;;;;;;5098977;28;20238;-66
2021/08/23 12:04:41;;;;;;;4.27;3.50;;;21.90;99.90;;;;;;5090367;28;20237;-66
2021/08/23 12:07:10;;;;;;;4.67;3.70;;;21.90;99.90;;;;;;5093870;28;20440;-65
2021/08/23 12:09:39;;;;;;;9.10;3.20;;;22.00;99.90;;;;;;5095598;28;20252;-66
2021/08/23 12:12:07;;;;;;;4.00;3.60;;;21.90;99.90;;;;;;5094462;28;20728;-66
2021/08/23 12:14:35;;;;;;;3.87;3.50;;;21.90;99.90;;;;;;5087363;28;20307;-66
2021/08/23 12:17:10;;;;;;;3.60;3.30;;;21.90;99.90;;;;;;5072412;28;20188;-64
2021/08/23 12:19:38;;;;;;;5.27;3.10;;;21.80;99.90;;;;;;5097099;28;20192;-68
2021/08/23 12:22:06;;;;;;;3.93;3.40;;;21.90;99.90;;;;;;5093168;28;20294;-67
2021/08/23 12:24:35;;;;;;;4.13;3.73;;;22.00;99.90;;;;;;5094186;28;20335;-67
2021/08/23 12:27:04;;;;;;;5.93;3.30;;;22.00;99.90;;;;;;5094904;28;20223;-67
2021/08/23 12:29:36;;;;;;;4.37;3.60;;;22.10;99.90;;;;;;5100394;28;20223;-67
2021/08/23 12:32:08;;;;;;;6.30;3.20;;;22.20;99.90;;;;;;5073184;28;20222;-67
2021/08/23 12:34:41;;;;;;;4.97;3.57;;;22.30;99.90;;;;;;5090099;28;20607;-67
2021/08/23 12:37:10;;;;;;;4.03;3.50;;;22.30;99.90;;;;;;5089185;28;20381;-67
2021/08/23 12:39:38;;;;;;;4.77;3.77;;;22.40;99.90;;;;;;5093244;28;20286;-68
2021/08/23 12:42:09;;;;;;;4.90;3.60;;;22.30;99.90;;;;;;5076317;28;20205;-68
2021/08/23 12:44:38;;;;;;;6.80;3.80;;;22.10;99.90;;;;;;5090026;28;20248;-68
2021/08/23 12:47:07;;;;;;;6.70;3.53;;;22.10;99.90;;;;;;5104460;28;20474;-66
2021/08/23 12:49:36;;;;;;;5.77;3.87;;;22.20;99.90;;;;;;5092901;28;20346;-65
2021/08/23 12:52:07;;;;;;;4.63;3.47;;;22.20;99.90;;;;;;5094397;28;20597;-66
2021/08/23 12:54:35;;;;;;;4.03;3.47;;;22.20;99.90;;;;;;5089633;28;20208;-66
2021/08/23 12:57:04;;;;;;;7.87;4.30;;;22.00;99.90;;;;;;5094731;28;20217;-65
2021/08/23 12:59:35;;;;;;;4.73;3.70;;;21.90;99.90;;;;;;5091888;28;20191;-66
2021/08/23 13:02:18;;;;;;;5.10;3.57;;;21.80;99.90;;;;;;5094200;28;20702;-68
2021/08/23 13:04:46;;;;;;;4.20;3.63;;;21.80;99.90;;;;;;5084535;28;20550;-68
2021/08/23 13:07:16;;;;;;;3.90;3.50;;;21.80;99.90;;;;;;5094036;28;20652;-66
2021/08/23 13:09:45;;;;;;;3.87;3.30;;;22.00;99.90;;;;;;5101554;28;20635;-65
2021/08/23 13:12:13;;;;;;;5.73;3.10;;;22.00;99.90;;;;;;5090769;28;20191;-66
2021/08/23 13:14:41;;;;;;;3.77;3.37;;;22.10;99.90;;;;;;5076938;28;20246;-66
2021/08/23 13:17:10;;;;;;;3.07;2.80;;;22.20;99.90;;;;;;5069464;28;20284;-68
2021/08/23 13:19:38;;;;;;;5.23;3.07;;;22.30;99.90;;;;;;5093422;28;20282;-68
2021/08/23 13:22:07;;;;;;;4.53;3.00;;;22.30;99.90;;;;;;5091798;28;20203;-68
2021/08/23 13:24:40;;;;;;;3.60;2.90;;;22.50;99.90;;;;;;5105618;28;20206;-68
2021/08/23 13:27:08;;;;;;;5.53;3.20;;;22.60;99.90;;;;;;5090512;28;20637;-68
2021/08/23 13:29:37;;;;;;;3.67;3.17;;;22.80;99.90;;;;;;5093394;28;20338;-68
2021/08/23 13:32:05;;;;;;;4.33;2.93;;;22.90;99.90;;;;;;5071247;28;20324;-68
2021/08/23 13:34:34;;;;;;;3.30;3.10;;;23.00;99.90;;;;;;5089047;28;20232;-68
2021/08/23 13:37:02;;;;;;;4.93;3.50;;;23.10;99.90;;;;;;5072312;28;20264;-68
2021/08/23 13:39:30;;;;;;;4.37;3.20;;;23.20;99.90;;;;;;5100429;28;20271;-68
2021/08/23 13:42:00;;;;;;;4.40;3.27;;;23.10;99.90;;;;;;5094054;28;20223;-68
2021/08/23 13:44:28;;;;;;;4.43;3.40;;;23.00;99.90;;;;;;5092920;28;20193;-68
2021/08/23 13:46:56;;;;;;;3.50;3.13;;;22.90;99.90;;;;;;5089125;28;20320;-68
2021/08/23 13:49:27;;;;;;;6.07;3.43;;;22.90;99.90;;;;;;5072115;28;20680;-68
2021/08/23 13:51:55;;;;;;;3.77;3.37;;;22.70;99.90;;;;;;5095561;28;20253;-68
2021/08/23 13:54:24;;;;;;;4.40;3.07;;;22.60;99.90;;;;;;5091945;28;20241;-68
2021/08/23 13:56:52;;;;;;;4.70;3.47;;;22.50;99.90;;;;;;5057790;28;20551;-65
2021/08/23 13:59:22;;;;;;;7.27;3.10;;;22.40;99.90;;;;;;5075940;28;20252;-66